createdAt,value
2023-02-18T05:00:54.777Z,101291.78
2023-02-18T05:03:22.153Z,101289.91
2023-02-18T05:05:48.782Z,101273.47
2023-02-18T05:08:16.972Z,101245.03
2023-02-18T05:10:45.127Z,101258.91
2023-02-18T05:13:11.789Z,101250.50
2023-02-18T05:15:38.585Z,101260.03
2023-02-18T05:18:05.928Z,101281.09
2023-02-18T05:20:35.127Z,101270.69
2023-02-18T05:23:02.038Z,101183.78
2023-02-18T05:25:29.097Z,101187.09
2023-02-18T05:27:56.433Z,101204.75
2023-02-18T05:30:23.582Z,101175.00
2023-02-18T05:32:51.144Z,101246.75
2023-02-18T05:35:17.794Z,101234.44
2023-02-18T05:37:44.852Z,101260.66
2023-02-18T05:40:12.106Z,101259.59
2023-02-18T05:42:41.062Z,101262.94
2023-02-18T05:45:08.391Z,101252.72
2023-02-18T05:47:35.193Z,101189.91
2023-02-18T05:50:02.519Z,101240.41
2023-02-18T05:52:30.398Z,101244.53
2023-02-18T05:54:57.601Z,101242.41
2023-02-18T05:57:28.760Z,101273.16
2023-02-18T05:59:58.702Z,101180.06
2023-02-18T06:02:26.590Z,101205.81
2023-02-18T06:04:54.350Z,101263.16
2023-02-18T06:07:21.279Z,101231.91
2023-02-18T06:09:48.298Z,101257.00
2023-02-18T06:12:17.105Z,101208.59
2023-02-18T06:14:44.192Z,101216.69
2023-02-18T06:17:12.649Z,101244.28
2023-02-18T06:19:41.565Z,101235.16
2023-02-18T06:22:08.263Z,101264.34
2023-02-18T06:24:36.383Z,101233.69
2023-02-18T06:27:03.474Z,101267.00
2023-02-18T06:29:33.600Z,101273.78
2023-02-18T06:32:00.363Z,101247.84
2023-02-18T06:34:29.093Z,101196.47
2023-02-18T06:36:56.356Z,101180.06
2023-02-18T06:39:23.998Z,101214.72
2023-02-18T06:41:51.068Z,101194.16
2023-02-18T06:44:17.750Z,101259.13
2023-02-18T06:46:45.106Z,101224.16
2023-02-18T06:49:13.107Z,101190.56
2023-02-18T06:51:41.013Z,101173.81
2023-02-18T06:54:07.800Z,101212.81
2023-02-18T06:56:36.027Z,101135.63
2023-02-18T06:59:04.136Z,101189.59
2023-02-18T07:01:32.949Z,101193.94
2023-02-18T07:04:00.982Z,101139.97
2023-02-18T07:06:28.200Z,101229.69
2023-02-18T07:08:55.586Z,101178.06
2023-02-18T07:11:23.592Z,101172.88
2023-02-18T07:13:51.522Z,101166.34
2023-02-18T07:16:20.873Z,101115.78
2023-02-18T07:18:49.089Z,101197.69
2023-02-18T07:21:15.827Z,101213.59
2023-02-18T07:23:44.130Z,101211.00
2023-02-18T07:26:11.989Z,101200.13
2023-02-18T07:28:39.625Z,101180.28
2023-02-18T07:31:06.348Z,101204.22
2023-02-18T07:33:33.573Z,101170.91
2023-02-18T07:36:01.019Z,101158.38
2023-02-18T07:38:28.621Z,101173.13
2023-02-18T07:40:56.827Z,101191.59
2023-02-18T07:43:26.095Z,101165.41
2023-02-18T07:45:54.107Z,101198.72
2023-02-18T07:48:21.248Z,101100.53
2023-02-18T07:50:48.018Z,101215.66
2023-02-18T07:53:16.536Z,101185.50
2023-02-18T07:55:49.483Z,101186.38
2023-02-18T07:58:16.097Z,101202.72
2023-02-18T08:00:47.556Z,101144.84
2023-02-18T08:03:15.890Z,101150.09
2023-02-18T08:05:43.178Z,101180.13
2023-02-18T08:08:13.724Z,101159.13
2023-02-18T08:10:40.385Z,101191.84
2023-02-18T08:13:09.342Z,101156.53
2023-02-18T08:15:37.014Z,101177.56
2023-02-18T08:18:07.291Z,101186.03
2023-02-18T08:20:38.605Z,101187.75
2023-02-18T08:23:07.766Z,101179.78
2023-02-18T08:25:35.040Z,101113.44
2023-02-18T08:28:01.797Z,101144.31
2023-02-18T08:30:28.717Z,101186.00
2023-02-18T08:32:55.600Z,101172.97
2023-02-18T08:35:23.827Z,101156.50
2023-02-18T08:37:52.260Z,101199.44
2023-02-18T08:40:21.037Z,101157.66
2023-02-18T08:42:48.701Z,101172.91
2023-02-18T08:45:15.693Z,101137.25
2023-02-18T08:48:16.885Z,101190.16
2023-02-18T08:50:29.567Z,101161.97
2023-02-18T08:52:57.358Z,101140.88
2023-02-18T08:55:26.720Z,101163.19
2023-02-18T08:57:53.760Z,101077.66
2023-02-18T09:00:20.620Z,101176.53
2023-02-18T09:02:49.011Z,101123.34
2023-02-18T09:05:17.073Z,101174.38
2023-02-18T09:07:44.058Z,101153.16
2023-02-18T09:10:11.982Z,101166.72
2023-02-18T09:12:38.653Z,101080.44
2023-02-18T09:15:06.585Z,101157.34
2023-02-18T09:17:33.413Z,101128.50
2023-02-18T09:20:00.907Z,101124.59
2023-02-18T09:22:28.726Z,101073.38
2023-02-18T09:24:56.173Z,101140.41
2023-02-18T09:27:24.532Z,101148.28
2023-02-18T09:29:52.030Z,101149.09
2023-02-18T09:32:32.603Z,101139.25
2023-02-18T09:35:03.730Z,101087.44
2023-02-18T09:37:30.510Z,101149.66
2023-02-18T09:40:00.144Z,101108.28
2023-02-18T09:42:32.548Z,101084.47
2023-02-18T09:45:02.139Z,101128.56
2023-02-18T09:47:33.687Z,101145.31
2023-02-18T09:50:23.958Z,101163.31
2023-02-18T09:52:50.773Z,101115.78
2023-02-18T09:55:25.023Z,101170.69
2023-02-18T09:58:03.831Z,101148.59
2023-02-18T10:00:34.620Z,101148.72
2023-02-18T10:03:06.562Z,101167.16
2023-02-18T10:05:34.736Z,101155.25
2023-02-18T10:08:28.861Z,101161.69
2023-02-18T10:10:55.673Z,101112.56
2023-02-18T10:13:45.786Z,101161.69
2023-02-18T10:16:18.071Z,101151.03
2023-02-18T10:18:49.398Z,101160.50
2023-02-18T10:21:21.184Z,101040.53
2023-02-18T10:24:12.912Z,101173.66
2023-02-18T10:26:40.480Z,101162.25
2023-02-18T10:29:15.684Z,101157.81
2023-02-18T10:31:50.489Z,101116.81
2023-02-18T10:34:23.275Z,101168.09
2023-02-18T10:36:52.912Z,101065.06
2023-02-18T10:39:44.649Z,101130.19
2023-02-18T10:42:36.407Z,101164.53
2023-02-18T10:45:22.171Z,101168.09
2023-02-18T10:48:13.860Z,101173.06
2023-02-18T10:50:42.538Z,101134.69
2023-02-18T10:53:18.052Z,101164.28
2023-02-18T10:55:49.238Z,101132.13
2023-02-18T10:58:43.111Z,101173.44
2023-02-18T11:01:19.354Z,101152.72
2023-02-18T11:03:51.973Z,101084.00
2023-02-18T11:06:33.090Z,101092.69
2023-02-18T11:09:00.855Z,101149.06
2023-02-18T11:11:35.403Z,101152.50
2023-02-18T11:14:04.910Z,101129.28
2023-02-18T11:16:43.632Z,101139.94
2023-02-18T11:19:34.463Z,101149.75
2023-02-18T11:22:29.148Z,101065.88
2023-02-18T11:24:57.730Z,101119.75
2023-02-18T11:27:25.895Z,101049.53
2023-02-18T11:29:54.485Z,101120.56
2023-02-18T11:32:22.185Z,101138.31
2023-02-18T11:34:51.385Z,101084.78
2023-02-18T11:37:20.621Z,101059.19
2023-02-18T11:39:53.751Z,101106.03
2023-02-18T11:42:23.008Z,101127.16
2023-02-18T11:44:58.598Z,101112.00
2023-02-18T11:47:30.497Z,101077.13
2023-02-18T11:50:10.296Z,101048.09
2023-02-18T11:52:50.067Z,101088.41
2023-02-18T11:55:27.393Z,101106.38
2023-02-18T12:13:27.719Z,101109.66
2023-02-18T12:16:16.540Z,101095.91
2023-02-18T12:19:04.664Z,101088.09
2023-02-18T12:22:29.451Z,101081.41
2023-02-18T12:25:16.968Z,101082.97
2023-02-18T12:28:28.996Z,101024.53
2023-02-18T12:31:58.419Z,101075.50
2023-02-18T12:35:34.938Z,101067.94
2023-02-18T12:43:17.698Z,101060.44
2023-02-18T12:49:00.635Z,100999.13
2023-02-18T12:55:43.662Z,101027.34
2023-02-18T12:58:26.018Z,101027.72
2023-02-18T13:01:10.697Z,100993.06
2023-02-18T13:03:47.212Z,101031.84
2023-02-18T13:10:52.476Z,101031.91
2023-02-18T13:13:54.798Z,101022.97
2023-02-18T13:16:21.726Z,101038.75
2023-02-18T13:18:59.542Z,101000.13
2023-02-18T13:21:26.651Z,101024.00
2023-02-18T13:24:00.319Z,100969.72
2023-02-18T13:26:27.937Z,101017.03
2023-02-18T13:29:28.637Z,101024.50
2023-02-18T13:32:20.986Z,100950.16
2023-02-18T13:35:00.942Z,101013.00
2023-02-18T13:37:45.545Z,101012.19
2023-02-18T13:40:52.362Z,100994.81
2023-02-18T13:43:30.922Z,101030.13
2023-02-18T13:49:33.747Z,100987.69
2023-02-18T13:52:01.927Z,100972.41
2023-02-18T13:54:30.294Z,100991.97
2023-02-18T13:57:27.151Z,101040.09
2023-02-18T14:00:02.768Z,100966.84
2023-02-18T14:02:36.277Z,101010.31
2023-02-18T14:05:03.325Z,101038.25
2023-02-18T14:07:36.480Z,101029.19
2023-02-18T14:10:32.253Z,101033.56
2023-02-18T14:13:27.640Z,101039.06
2023-02-18T14:16:32.867Z,100970.81
2023-02-18T14:19:53.279Z,100964.28
2023-02-18T14:22:38.645Z,101022.75
2023-02-18T14:26:05.147Z,101038.66
2023-02-18T14:28:34.055Z,101020.50
2023-02-18T14:31:14.093Z,100958.06
2023-02-18T14:34:00.956Z,100971.72
2023-02-18T14:36:46.389Z,101029.91
2023-02-18T14:39:19.743Z,101036.00
2023-02-18T14:42:08.018Z,101038.22
2023-02-18T14:44:54.240Z,101034.38
2023-02-18T14:47:41.520Z,101035.59
2023-02-18T14:50:31.119Z,101027.81
2023-02-18T14:52:58.225Z,100985.88
2023-02-18T14:55:30.551Z,101020.69
2023-02-18T14:58:22.954Z,100993.75
2023-02-18T15:00:49.826Z,101005.97
2023-02-18T15:03:22.335Z,101006.91
2023-02-18T15:05:54.768Z,100995.25
2023-02-18T15:08:23.769Z,100962.84
2023-02-18T15:10:59.665Z,101019.16
2023-02-18T15:13:37.346Z,101020.50
2023-02-18T15:16:07.999Z,101038.63
2023-02-18T15:18:43.627Z,101015.47
2023-02-18T15:21:37.447Z,101019.03
2023-02-18T15:24:06.540Z,101031.28
2023-02-18T15:26:33.925Z,101005.13
2023-02-18T15:29:03.765Z,101018.72
2023-02-18T15:31:32.376Z,101016.56
2023-02-18T15:33:59.358Z,101013.91
2023-02-18T15:36:27.657Z,101031.84
2023-02-18T15:38:56.798Z,101018.28
2023-02-18T15:41:23.594Z,101041.22
2023-02-18T15:44:04.644Z,101040.91
2023-02-18T15:46:31.990Z,101041.03
2023-02-18T15:48:59.851Z,101024.97
2023-02-18T15:51:29.665Z,101035.91
2023-02-18T15:53:59.589Z,101045.19
2023-02-18T15:56:46.962Z,101001.53
2023-02-18T15:59:22.082Z,101005.84
2023-02-18T16:01:56.647Z,101011.34
2023-02-18T16:04:24.705Z,101019.81
2023-02-18T16:06:53.632Z,101008.53
2023-02-18T16:09:26.914Z,101018.16
2023-02-18T16:11:59.697Z,101020.09
2023-02-18T16:14:47.640Z,101040.97
2023-02-18T16:17:34.339Z,101044.28
2023-02-18T16:20:16.558Z,101042.72
2023-02-18T16:22:45.426Z,101044.44
2023-02-18T16:25:25.910Z,101037.91
2023-02-18T16:27:58.124Z,101059.16
2023-02-18T16:30:29.916Z,101001.41
2023-02-18T16:32:58.320Z,101043.47
2023-02-18T16:35:27.813Z,100997.09
2023-02-18T16:37:57.738Z,101047.69
2023-02-18T16:40:35.579Z,101058.63
2023-02-18T16:43:15.770Z,101067.34
2023-02-18T16:45:44.160Z,101063.69
2023-02-18T16:48:35.635Z,101086.75
2023-02-18T16:51:11.412Z,101066.56
2023-02-18T16:53:38.386Z,101058.69
2023-02-18T16:56:10.780Z,101053.50
2023-02-18T16:58:38.278Z,101076.50
2023-02-18T17:01:05.675Z,101050.09
2023-02-18T17:03:32.535Z,101053.78
2023-02-18T17:05:59.363Z,101082.53
2023-02-18T17:08:27.628Z,101084.97
2023-02-18T17:10:57.312Z,101091.00
2023-02-18T17:13:26.486Z,101061.91
2023-02-18T17:15:54.403Z,101034.59
2023-02-18T17:18:21.856Z,101093.53
2023-02-18T17:20:49.073Z,101119.16
2023-02-18T17:23:16.490Z,101055.88
2023-02-18T17:25:43.389Z,101095.22
2023-02-18T17:28:10.232Z,101090.78
2023-02-18T17:30:40.461Z,101070.56
2023-02-18T17:33:08.004Z,101090.31
2023-02-18T17:35:34.932Z,101120.41
2023-02-18T17:38:01.808Z,101073.38
2023-02-18T17:40:28.684Z,101127.31
2023-02-18T17:42:55.868Z,101092.78
2023-02-18T17:45:33.384Z,101125.69
2023-02-18T17:48:00.728Z,101107.13
2023-02-18T17:50:28.042Z,101086.03
2023-02-18T17:52:55.526Z,101104.53
2023-02-18T17:55:30.296Z,101136.69
2023-02-18T17:57:58.996Z,101129.56
2023-02-18T18:00:34.552Z,101092.84
2023-02-18T18:03:01.583Z,101112.25
2023-02-18T18:05:30.563Z,101072.94
2023-02-18T18:07:57.661Z,101115.44
2023-02-18T18:10:28.622Z,101130.06
2023-02-18T18:12:56.202Z,101111.78
2023-02-18T18:15:27.285Z,101153.56
2023-02-18T18:17:54.723Z,101131.63
2023-02-18T18:20:23.314Z,101116.91
2023-02-18T18:22:51.650Z,101157.00
2023-02-18T18:25:27.102Z,101161.00
2023-02-18T18:27:54.198Z,101131.03
2023-02-18T18:30:31.166Z,101142.47
2023-02-18T18:32:58.226Z,101134.91
2023-02-18T18:35:32.210Z,101161.09
2023-02-18T18:37:59.291Z,101124.22
2023-02-18T18:40:28.286Z,101160.31
2023-02-18T18:42:55.863Z,101156.19
2023-02-18T18:45:33.479Z,101160.47
2023-02-18T18:48:01.285Z,101160.78
2023-02-18T18:50:28.158Z,101160.59
2023-02-18T18:52:55.950Z,101160.00
2023-02-18T18:55:36.856Z,101163.66
2023-02-18T18:58:04.012Z,101138.31
2023-02-18T19:00:35.814Z,101133.56
2023-02-18T19:03:04.281Z,101101.47
2023-02-18T19:05:37.235Z,101152.59
2023-02-18T19:08:04.141Z,101164.94
2023-02-18T19:10:43.761Z,101136.09
2023-02-18T19:13:15.122Z,101138.47
2023-02-18T19:15:41.944Z,101130.75
2023-02-18T19:18:13.200Z,101114.47
2023-02-18T19:20:41.434Z,101183.72
2023-02-18T19:23:09.798Z,101164.09
2023-02-18T19:25:37.760Z,101119.47
2023-02-18T19:28:06.867Z,101168.28
2023-02-18T19:30:36.751Z,101170.66
2023-02-18T19:33:07.712Z,101139.63
2023-02-18T19:35:35.347Z,101119.09
2023-02-18T19:38:02.972Z,101112.84
2023-02-18T19:40:31.022Z,101163.34
2023-02-18T19:42:58.086Z,101153.34
2023-02-18T19:45:25.078Z,101168.94
2023-02-18T19:48:01.005Z,101168.00
2023-02-18T19:50:31.538Z,101149.25
2023-02-18T19:52:59.237Z,101140.84
2023-02-18T19:55:26.289Z,101153.94
2023-02-18T19:57:53.607Z,101161.31
2023-02-18T20:00:21.635Z,101158.75
2023-02-18T20:02:50.211Z,101127.59
2023-02-18T20:05:17.767Z,101120.03
2023-02-18T20:07:46.823Z,101106.59
2023-02-18T20:10:17.382Z,101085.13
2023-02-18T20:12:45.751Z,101136.22
2023-02-18T20:15:12.798Z,101128.69
2023-02-18T20:17:39.848Z,101076.03
2023-02-18T20:20:10.837Z,101098.78
2023-02-18T20:22:39.369Z,101095.50
2023-02-18T20:25:07.296Z,101109.63
2023-02-18T20:27:34.374Z,101084.50
2023-02-18T20:30:01.734Z,101125.16
2023-02-18T20:32:29.405Z,101107.47
2023-02-18T20:34:57.295Z,101088.38
2023-02-18T20:37:26.592Z,101133.56
2023-02-18T20:39:53.924Z,101113.94
2023-02-18T20:42:37.918Z,101122.09
2023-02-18T20:45:22.086Z,101082.28
2023-02-18T20:47:50.057Z,101094.75
2023-02-18T20:50:17.273Z,101083.63
2023-02-18T20:52:44.260Z,101104.94
2023-02-18T20:55:11.725Z,101097.06
2023-02-18T20:57:39.723Z,101150.28
2023-02-18T21:00:07.781Z,101065.53
2023-02-18T21:02:35.043Z,101113.41
2023-02-18T21:05:02.067Z,101127.59
2023-02-18T21:07:29.651Z,101132.66
2023-02-18T21:09:56.702Z,101074.28
2023-02-18T21:12:23.696Z,101097.53
2023-02-18T21:14:51.365Z,101109.41
2023-02-18T21:17:19.924Z,101080.88
2023-02-18T21:19:46.992Z,101133.09
2023-02-18T21:22:13.992Z,101116.75
2023-02-18T21:24:41.679Z,101070.56
2023-02-18T21:27:08.666Z,101129.41
2023-02-18T21:29:35.819Z,101137.19
2023-02-18T21:32:03.155Z,101057.72
2023-02-18T21:34:30.259Z,101129.41
2023-02-18T21:36:57.398Z,101110.47
2023-02-18T21:39:24.486Z,101094.63
2023-02-18T21:41:54.327Z,101125.09
2023-02-18T21:44:32.882Z,101121.44
2023-02-18T21:47:07.436Z,101132.50
2023-02-18T21:49:34.812Z,101088.59
2023-02-18T21:52:10.572Z,101140.19
2023-02-18T21:54:45.348Z,101076.56
2023-02-18T21:57:17.278Z,101099.22
2023-02-18T21:59:45.711Z,101082.28
2023-02-18T22:02:33.488Z,101124.00
2023-02-18T22:05:09.788Z,101122.63
2023-02-18T22:07:37.708Z,101110.06
2023-02-18T22:10:04.717Z,101115.06
2023-02-18T22:12:32.780Z,101092.31
2023-02-18T22:14:59.572Z,101078.41
2023-02-18T22:17:29.616Z,101068.53
2023-02-18T22:19:56.388Z,101059.69
2023-02-18T22:22:23.144Z,101080.13
2023-02-18T22:24:52.545Z,101026.88
2023-02-18T22:27:19.524Z,101073.97
2023-02-18T22:29:47.332Z,101034.25
